sensor_id;sensor_type;location;lat;lon;timestamp;P1;durP1;ratioP1;P2;durP2;ratioP2
46210;SDS011;52144;48.040;-1.594;2023-07-31T00:01:01;11.90;;;3.25;;
46210;SDS011;52144;48.040;-1.594;2023-07-31T00:03:30;12.05;;;4.03;;
46210;SDS011;52144;48.040;-1.594;2023-07-31T00:05:58;11.30;;;2.65;;
46210;SDS011;52144;48.040;-1.594;2023-07-31T00:08:26;8.73;;;2.72;;
46210;SDS011;52144;48.040;-1.594;2023-07-31T00:10:54;12.68;;;3.78;;
46210;SDS011;52144;48.040;-1.594;2023-07-31T00:13:21;7.05;;;2.85;;
46210;SDS011;52144;48.040;-1.594;2023-07-31T00:15:49;9.15;;;2.67;;
46210;SDS011;52144;48.040;-1.594;2023-07-31T00:18:17;7.97;;;3.25;;
46210;SDS011;52144;48.040;-1.594;2023-07-31T00:20:46;13.20;;;3.45;;
46210;SDS011;52144;48.040;-1.594;2023-07-31T00:23:14;7.72;;;3.10;;
46210;SDS011;52144;48.040;-1.594;2023-07-31T00:25:42;6.95;;;2.28;;
46210;SDS011;52144;48.040;-1.594;2023-07-31T00:28:10;8.38;;;3.28;;
46210;SDS011;52144;48.040;-1.594;2023-07-31T00:30:38;6.45;;;3.25;;
46210;SDS011;52144;48.040;-1.594;2023-07-31T00:33:05;6.28;;;2.22;;
46210;SDS011;52144;48.040;-1.594;2023-07-31T00:35:33;14.13;;;3.35;;
46210;SDS011;52144;48.040;-1.594;2023-07-31T00:38:02;10.40;;;3.88;;
46210;SDS011;52144;48.040;-1.594;2023-07-31T00:40:34;10.05;;;3.90;;
46210;SDS011;52144;48.040;-1.594;2023-07-31T00:43:02;14.10;;;3.97;;
46210;SDS011;52144;48.040;-1.594;2023-07-31T00:45:30;9.07;;;2.88;;
46210;SDS011;52144;48.040;-1.594;2023-07-31T00:47:59;10.85;;;3.13;;
46210;SDS011;52144;48.040;-1.594;2023-07-31T00:50:27;12.50;;;4.22;;
46210;SDS011;52144;48.040;-1.594;2023-07-31T00:52:56;22.33;;;3.63;;
46210;SDS011;52144;48.040;-1.594;2023-07-31T00:55:25;12.65;;;4.40;;
46210;SDS011;52144;48.040;-1.594;2023-07-31T00:57:54;6.90;;;3.42;;
46210;SDS011;52144;48.040;-1.594;2023-07-31T01:00:22;5.32;;;2.50;;
46210;SDS011;52144;48.040;-1.594;2023-07-31T01:02:50;10.65;;;3.10;;
46210;SDS011;52144;48.040;-1.594;2023-07-31T01:05:19;10.15;;;3.80;;
46210;SDS011;52144;48.040;-1.594;2023-07-31T01:07:54;11.50;;;4.10;;
46210;SDS011;52144;48.040;-1.594;2023-07-31T01:10:34;10.27;;;4.15;;
46210;SDS011;52144;48.040;-1.594;2023-07-31T01:13:07;9.38;;;3.38;;
46210;SDS011;52144;48.040;-1.594;2023-07-31T01:15:36;11.57;;;3.75;;
46210;SDS011;52144;48.040;-1.594;2023-07-31T01:18:04;14.13;;;4.30;;
46210;SDS011;52144;48.040;-1.594;2023-07-31T01:20:32;5.47;;;3.08;;
46210;SDS011;52144;48.040;-1.594;2023-07-31T01:26:09;10.75;;;3.72;;
46210;SDS011;52144;48.040;-1.594;2023-07-31T01:28:42;8.18;;;3.17;;
46210;SDS011;52144;48.040;-1.594;2023-07-31T01:31:18;11.02;;;3.60;;
46210;SDS011;52144;48.040;-1.594;2023-07-31T01:33:50;10.07;;;3.57;;
46210;SDS011;52144;48.040;-1.594;2023-07-31T01:36:20;20.10;;;3.97;;
46210;SDS011;52144;48.040;-1.594;2023-07-31T01:38:48;9.25;;;3.10;;
46210;SDS011;52144;48.040;-1.594;2023-07-31T01:41:18;14.60;;;3.83;;
46210;SDS011;52144;48.040;-1.594;2023-07-31T01:43:45;13.55;;;2.78;;
46210;SDS011;52144;48.040;-1.594;2023-07-31T01:46:14;11.50;;;3.75;;
46210;SDS011;52144;48.040;-1.594;2023-07-31T01:48:42;8.82;;;3.55;;
46210;SDS011;52144;48.040;-1.594;2023-07-31T01:51:09;13.38;;;3.10;;
46210;SDS011;52144;48.040;-1.594;2023-07-31T01:53:37;12.52;;;3.92;;
46210;SDS011;52144;48.040;-1.594;2023-07-31T01:56:05;9.48;;;3.92;;
46210;SDS011;52144;48.040;-1.594;2023-07-31T01:58:34;11.63;;;3.95;;
46210;SDS011;52144;48.040;-1.594;2023-07-31T02:01:02;5.90;;;3.30;;
46210;SDS011;52144;48.040;-1.594;2023-07-31T02:03:30;8.70;;;4.25;;
46210;SDS011;52144;48.040;-1.594;2023-07-31T02:05:58;12.57;;;4.05;;
46210;SDS011;52144;48.040;-1.594;2023-07-31T02:08:25;6.25;;;2.45;;
46210;SDS011;52144;48.040;-1.594;2023-07-31T02:10:53;10.85;;;3.05;;
46210;SDS011;52144;48.040;-1.594;2023-07-31T02:13:21;6.97;;;3.30;;
46210;SDS011;52144;48.040;-1.594;2023-07-31T02:15:50;10.05;;;4.13;;
46210;SDS011;52144;48.040;-1.594;2023-07-31T02:18:18;13.40;;;3.47;;
46210;SDS011;52144;48.040;-1.594;2023-07-31T02:20:48;11.68;;;3.75;;
46210;SDS011;52144;48.040;-1.594;2023-07-31T02:23:17;10.45;;;3.67;;
46210;SDS011;52144;48.040;-1.594;2023-07-31T02:25:45;10.52;;;4.78;;
46210;SDS011;52144;48.040;-1.594;2023-07-31T02:28:13;6.13;;;3.15;;
46210;SDS011;52144;48.040;-1.594;2023-07-31T02:30:43;3.95;;;2.35;;
46210;SDS011;52144;48.040;-1.594;2023-07-31T02:33:13;13.32;;;3.17;;
46210;SDS011;52144;48.040;-1.594;2023-07-31T02:35:42;10.43;;;3.78;;
46210;SDS011;52144;48.040;-1.594;2023-07-31T02:38:09;12.20;;;3.97;;
46210;SDS011;52144;48.040;-1.594;2023-07-31T02:40:37;8.98;;;3.92;;
46210;SDS011;52144;48.040;-1.594;2023-07-31T02:43:07;7.68;;;3.50;;
46210;SDS011;52144;48.040;-1.594;2023-07-31T02:45:35;9.25;;;2.80;;
46210;SDS011;52144;48.040;-1.594;2023-07-31T02:48:03;9.43;;;2.83;;
46210;SDS011;52144;48.040;-1.594;2023-07-31T02:50:32;11.13;;;3.25;;
46210;SDS011;52144;48.040;-1.594;2023-07-31T02:53:00;9.30;;;3.38;;
46210;SDS011;52144;48.040;-1.594;2023-07-31T02:55:28;13.27;;;3.55;;
46210;SDS011;52144;48.040;-1.594;2023-07-31T02:57:55;6.15;;;3.38;;
46210;SDS011;52144;48.040;-1.594;2023-07-31T03:00:24;11.35;;;3.45;;
46210;SDS011;52144;48.040;-1.594;2023-07-31T03:02:52;8.65;;;4.05;;
46210;SDS011;52144;48.040;-1.594;2023-07-31T03:05:20;12.35;;;3.28;;
46210;SDS011;52144;48.040;-1.594;2023-07-31T03:07:49;11.05;;;3.17;;
46210;SDS011;52144;48.040;-1.594;2023-07-31T03:10:17;10.13;;;3.78;;
46210;SDS011;52144;48.040;-1.594;2023-07-31T03:12:46;15.70;;;3.67;;
46210;SDS011;52144;48.040;-1.594;2023-07-31T03:15:14;12.57;;;3.60;;
46210;SDS011;52144;48.040;-1.594;2023-07-31T03:17:42;9.73;;;2.88;;
46210;SDS011;52144;48.040;-1.594;2023-07-31T03:20:10;11.27;;;3.53;;
46210;SDS011;52144;48.040;-1.594;2023-07-31T03:22:38;3.80;;;1.92;;
46210;SDS011;52144;48.040;-1.594;2023-07-31T03:25:08;9.48;;;3.80;;
46210;SDS011;52144;48.040;-1.594;2023-07-31T03:27:36;9.27;;;3.47;;
46210;SDS011;52144;48.040;-1.594;2023-07-31T03:30:04;6.22;;;2.55;;
46210;SDS011;52144;48.040;-1.594;2023-07-31T03:32:33;15.48;;;2.88;;
46210;SDS011;52144;48.040;-1.594;2023-07-31T03:35:01;10.48;;;5.05;;
46210;SDS011;52144;48.040;-1.594;2023-07-31T03:37:29;5.03;;;2.83;;
46210;SDS011;52144;48.040;-1.594;2023-07-31T03:39:57;7.45;;;2.83;;
46210;SDS011;52144;48.040;-1.594;2023-07-31T03:42:26;6.03;;;3.03;;
46210;SDS011;52144;48.040;-1.594;2023-07-31T03:44:54;5.25;;;3.25;;
46210;SDS011;52144;48.040;-1.594;2023-07-31T03:47:22;7.40;;;2.95;;
46210;SDS011;52144;48.040;-1.594;2023-07-31T03:49:49;10.73;;;2.92;;
46210;SDS011;52144;48.040;-1.594;2023-07-31T03:52:17;15.65;;;3.30;;
46210;SDS011;52144;48.040;-1.594;2023-07-31T03:54:45;9.85;;;2.53;;
46210;SDS011;52144;48.040;-1.594;2023-07-31T03:57:13;9.63;;;2.95;;
46210;SDS011;52144;48.040;-1.594;2023-07-31T03:59:42;6.57;;;2.28;;
46210;SDS011;52144;48.040;-1.594;2023-07-31T04:02:10;9.35;;;3.95;;
46210;SDS011;52144;48.040;-1.594;2023-07-31T04:04:38;8.52;;;2.33;;
46210;SDS011;52144;48.040;-1.594;2023-07-31T04:07:06;11.57;;;3.15;;
46210;SDS011;52144;48.040;-1.594;2023-07-31T04:09:33;9.75;;;2.40;;
46210;SDS011;52144;48.040;-1.594;2023-07-31T04:12:01;10.77;;;2.70;;
46210;SDS011;52144;48.040;-1.594;2023-07-31T04:14:29;8.07;;;2.72;;
46210;SDS011;52144;48.040;-1.594;2023-07-31T04:16:58;4.15;;;1.92;;
46210;SDS011;52144;48.040;-1.594;2023-07-31T04:19:26;10.85;;;3.20;;
46210;SDS011;52144;48.040;-1.594;2023-07-31T04:21:54;13.93;;;2.88;;
46210;SDS011;52144;48.040;-1.594;2023-07-31T04:24:22;7.80;;;2.65;;
46210;SDS011;52144;48.040;-1.594;2023-07-31T04:26:51;5.53;;;2.63;;
46210;SDS011;52144;48.040;-1.594;2023-07-31T04:29:19;10.98;;;2.97;;
46210;SDS011;52144;48.040;-1.594;2023-07-31T04:31:47;7.03;;;2.35;;
46210;SDS011;52144;48.040;-1.594;2023-07-31T04:34:17;12.43;;;2.65;;
46210;SDS011;52144;48.040;-1.594;2023-07-31T04:36:44;8.63;;;2.90;;
46210;SDS011;52144;48.040;-1.594;2023-07-31T04:39:12;7.05;;;2.17;;
46210;SDS011;52144;48.040;-1.594;2023-07-31T04:41:40;10.77;;;3.80;;
46210;SDS011;52144;48.040;-1.594;2023-07-31T04:44:08;18.15;;;2.83;;
46210;SDS011;52144;48.040;-1.594;2023-07-31T04:46:37;5.68;;;2.45;;
46210;SDS011;52144;48.040;-1.594;2023-07-31T04:49:05;6.93;;;2.80;;
46210;SDS011;52144;48.040;-1.594;2023-07-31T04:51:35;7.22;;;2.55;;
46210;SDS011;52144;48.040;-1.594;2023-07-31T04:54:02;9.82;;;2.65;;
46210;SDS011;52144;48.040;-1.594;2023-07-31T04:56:30;12.50;;;3.58;;
46210;SDS011;52144;48.040;-1.594;2023-07-31T04:58:58;7.55;;;2.70;;
46210;SDS011;52144;48.040;-1.594;2023-07-31T05:01:26;6.78;;;3.30;;
46210;SDS011;52144;48.040;-1.594;2023-07-31T05:03:54;6.70;;;2.65;;
46210;SDS011;52144;48.040;-1.594;2023-07-31T05:06:22;7.53;;;2.30;;
46210;SDS011;52144;48.040;-1.594;2023-07-31T05:08:52;7.10;;;2.60;;
46210;SDS011;52144;48.040;-1.594;2023-07-31T05:11:20;3.33;;;2.05;;
46210;SDS011;52144;48.040;-1.594;2023-07-31T05:13:47;14.45;;;2.38;;
46210;SDS011;52144;48.040;-1.594;2023-07-31T05:16:15;4.57;;;3.47;;
46210;SDS011;52144;48.040;-1.594;2023-07-31T05:18:43;9.05;;;2.65;;
46210;SDS011;52144;48.040;-1.594;2023-07-31T05:21:11;3.47;;;2.15;;
46210;SDS011;52144;48.040;-1.594;2023-07-31T05:23:39;4.20;;;2.35;;
46210;SDS011;52144;48.040;-1.594;2023-07-31T05:26:08;8.20;;;2.72;;
46210;SDS011;52144;48.040;-1.594;2023-07-31T05:28:36;5.97;;;2.55;;
46210;SDS011;52144;48.040;-1.594;2023-07-31T05:31:04;7.18;;;2.35;;
46210;SDS011;52144;48.040;-1.594;2023-07-31T05:33:33;8.00;;;2.78;;
46210;SDS011;52144;48.040;-1.594;2023-07-31T05:36:00;6.55;;;3.03;;
46210;SDS011;52144;48.040;-1.594;2023-07-31T05:38:28;7.72;;;2.53;;
46210;SDS011;52144;48.040;-1.594;2023-07-31T05:40:56;11.77;;;2.67;;
46210;SDS011;52144;48.040;-1.594;2023-07-31T05:43:25;5.85;;;2.63;;
46210;SDS011;52144;48.040;-1.594;2023-07-31T05:45:53;5.60;;;2.38;;
46210;SDS011;52144;48.040;-1.594;2023-07-31T05:48:21;5.93;;;2.97;;
46210;SDS011;52144;48.040;-1.594;2023-07-31T05:50:48;9.88;;;2.72;;
46210;SDS011;52144;48.040;-1.594;2023-07-31T05:53:16;10.38;;;2.65;;
46210;SDS011;52144;48.040;-1.594;2023-07-31T05:55:44;7.07;;;2.58;;
46210;SDS011;52144;48.040;-1.594;2023-07-31T05:58:12;8.68;;;3.15;;
46210;SDS011;52144;48.040;-1.594;2023-07-31T06:00:41;7.82;;;2.70;;
46210;SDS011;52144;48.040;-1.594;2023-07-31T06:03:09;7.35;;;2.58;;
46210;SDS011;52144;48.040;-1.594;2023-07-31T06:05:37;8.68;;;2.75;;
46210;SDS011;52144;48.040;-1.594;2023-07-31T06:08:04;10.18;;;3.30;;
46210;SDS011;52144;48.040;-1.594;2023-07-31T06:10:32;5.55;;;2.63;;
46210;SDS011;52144;48.040;-1.594;2023-07-31T06:13:01;7.78;;;2.03;;
46210;SDS011;52144;48.040;-1.594;2023-07-31T06:15:28;5.93;;;3.17;;
46210;SDS011;52144;48.040;-1.594;2023-07-31T06:17:57;4.38;;;2.78;;
46210;SDS011;52144;48.040;-1.594;2023-07-31T06:20:28;5.57;;;2.40;;
46210;SDS011;52144;48.040;-1.594;2023-07-31T06:22:56;6.13;;;3.05;;
46210;SDS011;52144;48.040;-1.594;2023-07-31T06:25:24;7.47;;;2.35;;
46210;SDS011;52144;48.040;-1.594;2023-07-31T06:27:51;6.95;;;2.65;;
46210;SDS011;52144;48.040;-1.594;2023-07-31T06:30:20;9.15;;;3.17;;
46210;SDS011;52144;48.040;-1.594;2023-07-31T06:32:47;2.83;;;2.35;;
46210;SDS011;52144;48.040;-1.594;2023-07-31T06:35:17;14.63;;;2.42;;
46210;SDS011;52144;48.040;-1.594;2023-07-31T06:37:45;6.47;;;2.00;;
46210;SDS011;52144;48.040;-1.594;2023-07-31T06:40:12;3.58;;;1.90;;
46210;SDS011;52144;48.040;-1.594;2023-07-31T06:42:40;8.25;;;2.88;;
46210;SDS011;52144;48.040;-1.594;2023-07-31T06:45:08;9.23;;;2.10;;
46210;SDS011;52144;48.040;-1.594;2023-07-31T06:47:37;8.38;;;2.22;;
46210;SDS011;52144;48.040;-1.594;2023-07-31T06:50:05;3.60;;;2.10;;
46210;SDS011;52144;48.040;-1.594;2023-07-31T06:52:35;7.82;;;1.73;;
46210;SDS011;52144;48.040;-1.594;2023-07-31T06:55:03;6.95;;;2.10;;
46210;SDS011;52144;48.040;-1.594;2023-07-31T06:57:44;6.47;;;2.53;;
46210;SDS011;52144;48.040;-1.594;2023-07-31T07:00:12;5.22;;;2.40;;
46210;SDS011;52144;48.040;-1.594;2023-07-31T07:02:40;6.50;;;2.13;;
46210;SDS011;52144;48.040;-1.594;2023-07-31T07:05:08;5.22;;;1.58;;
46210;SDS011;52144;48.040;-1.594;2023-07-31T07:07:38;5.47;;;1.80;;
46210;SDS011;52144;48.040;-1.594;2023-07-31T07:10:06;6.82;;;2.20;;
46210;SDS011;52144;48.040;-1.594;2023-07-31T07:12:35;5.35;;;2.00;;
46210;SDS011;52144;48.040;-1.594;2023-07-31T07:15:03;4.13;;;1.92;;
46210;SDS011;52144;48.040;-1.594;2023-07-31T07:17:31;5.95;;;2.30;;
46210;SDS011;52144;48.040;-1.594;2023-07-31T07:19:59;5.47;;;2.63;;
46210;SDS011;52144;48.040;-1.594;2023-07-31T07:22:29;5.63;;;1.75;;
46210;SDS011;52144;48.040;-1.594;2023-07-31T07:24:58;2.78;;;2.00;;
46210;SDS011;52144;48.040;-1.594;2023-07-31T07:27:26;11.10;;;2.47;;
46210;SDS011;52144;48.040;-1.594;2023-07-31T07:29:54;4.15;;;1.63;;
46210;SDS011;52144;48.040;-1.594;2023-07-31T07:32:21;8.27;;;2.50;;
46210;SDS011;52144;48.040;-1.594;2023-07-31T07:34:49;6.70;;;2.45;;
46210;SDS011;52144;48.040;-1.594;2023-07-31T07:37:17;8.63;;;1.98;;
46210;SDS011;52144;48.040;-1.594;2023-07-31T07:39:45;7.65;;;2.00;;
46210;SDS011;52144;48.040;-1.594;2023-07-31T07:42:15;4.45;;;2.15;;
46210;SDS011;52144;48.040;-1.594;2023-07-31T07:44:42;9.50;;;2.45;;
46210;SDS011;52144;48.040;-1.594;2023-07-31T07:47:10;6.57;;;2.60;;
46210;SDS011;52144;48.040;-1.594;2023-07-31T07:49:38;3.38;;;1.42;;
46210;SDS011;52144;48.040;-1.594;2023-07-31T07:52:06;6.15;;;2.22;;
46210;SDS011;52144;48.040;-1.594;2023-07-31T07:54:34;6.10;;;2.05;;
46210;SDS011;52144;48.040;-1.594;2023-07-31T07:57:02;4.15;;;2.25;;
46210;SDS011;52144;48.040;-1.594;2023-07-31T07:59:32;7.88;;;1.60;;
46210;SDS011;52144;48.040;-1.594;2023-07-31T08:01:59;7.75;;;1.83;;
46210;SDS011;52144;48.040;-1.594;2023-07-31T08:04:27;6.38;;;1.85;;
46210;SDS011;52144;48.040;-1.594;2023-07-31T08:06:55;4.00;;;1.83;;
46210;SDS011;52144;48.040;-1.594;2023-07-31T08:09:23;6.97;;;1.90;;
46210;SDS011;52144;48.040;-1.594;2023-07-31T08:11:50;3.85;;;1.80;;
46210;SDS011;52144;48.040;-1.594;2023-07-31T08:14:18;1.98;;;0.93;;
46210;SDS011;52144;48.040;-1.594;2023-07-31T08:16:47;5.82;;;2.47;;
46210;SDS011;52144;48.040;-1.594;2023-07-31T08:19:15;5.72;;;1.70;;
46210;SDS011;52144;48.040;-1.594;2023-07-31T08:21:43;4.28;;;1.75;;
46210;SDS011;52144;48.040;-1.594;2023-07-31T08:24:11;6.03;;;1.67;;
46210;SDS011;52144;48.040;-1.594;2023-07-31T08:26:38;5.60;;;2.50;;
46210;SDS011;52144;48.040;-1.594;2023-07-31T08:29:07;2.95;;;1.65;;
46210;SDS011;52144;48.040;-1.594;2023-07-31T08:31:35;4.60;;;1.55;;
46210;SDS011;52144;48.040;-1.594;2023-07-31T08:34:04;3.78;;;1.70;;
46210;SDS011;52144;48.040;-1.594;2023-07-31T08:36:32;6.97;;;1.77;;
46210;SDS011;52144;48.040;-1.594;2023-07-31T08:39:00;4.05;;;1.50;;
46210;SDS011;52144;48.040;-1.594;2023-07-31T08:41:27;2.22;;;1.58;;
46210;SDS011;52144;48.040;-1.594;2023-07-31T08:43:55;2.00;;;1.15;;
46210;SDS011;52144;48.040;-1.594;2023-07-31T08:46:24;3.72;;;1.30;;
46210;SDS011;52144;48.040;-1.594;2023-07-31T08:48:52;6.72;;;1.50;;
46210;SDS011;52144;48.040;-1.594;2023-07-31T08:51:23;2.47;;;1.33;;
46210;SDS011;52144;48.040;-1.594;2023-07-31T08:53:51;5.18;;;1.83;;
46210;SDS011;52144;48.040;-1.594;2023-07-31T08:56:20;2.10;;;1.33;;
46210;SDS011;52144;48.040;-1.594;2023-07-31T08:58:48;4.75;;;1.13;;
46210;SDS011;52144;48.040;-1.594;2023-07-31T09:01:17;6.07;;;1.92;;
46210;SDS011;52144;48.040;-1.594;2023-07-31T09:03:45;15.88;;;1.60;;
46210;SDS011;52144;48.040;-1.594;2023-07-31T09:06:13;4.18;;;1.30;;
46210;SDS011;52144;48.040;-1.594;2023-07-31T09:08:47;3.00;;;0.98;;
46210;SDS011;52144;48.040;-1.594;2023-07-31T09:11:14;1.75;;;1.00;;
46210;SDS011;52144;48.040;-1.594;2023-07-31T09:13:42;2.85;;;1.55;;
46210;SDS011;52144;48.040;-1.594;2023-07-31T09:16:10;2.08;;;1.35;;
46210;SDS011;52144;48.040;-1.594;2023-07-31T09:18:52;3.40;;;1.38;;
46210;SDS011;52144;48.040;-1.594;2023-07-31T09:21:21;4.30;;;1.77;;
46210;SDS011;52144;48.040;-1.594;2023-07-31T09:23:50;2.10;;;1.48;;
46210;SDS011;52144;48.040;-1.594;2023-07-31T09:26:29;1.60;;;1.23;;
46210;SDS011;52144;48.040;-1.594;2023-07-31T09:28:58;5.70;;;1.80;;
46210;SDS011;52144;48.040;-1.594;2023-07-31T09:31:33;4.57;;;1.40;;
46210;SDS011;52144;48.040;-1.594;2023-07-31T09:34:08;7.60;;;1.65;;
46210;SDS011;52144;48.040;-1.594;2023-07-31T09:36:39;2.63;;;1.60;;
46210;SDS011;52144;48.040;-1.594;2023-07-31T09:39:10;3.65;;;1.65;;
46210;SDS011;52144;48.040;-1.594;2023-07-31T09:41:39;2.33;;;1.73;;
46210;SDS011;52144;48.040;-1.594;2023-07-31T09:44:07;2.10;;;1.27;;
46210;SDS011;52144;48.040;-1.594;2023-07-31T09:46:35;7.25;;;2.17;;
46210;SDS011;52144;48.040;-1.594;2023-07-31T09:49:06;3.90;;;1.95;;
46210;SDS011;52144;48.040;-1.594;2023-07-31T09:51:35;7.90;;;2.28;;
46210;SDS011;52144;48.040;-1.594;2023-07-31T09:54:13;4.07;;;2.17;;
46210;SDS011;52144;48.040;-1.594;2023-07-31T09:56:42;2.42;;;1.67;;
46210;SDS011;52144;48.040;-1.594;2023-07-31T09:59:12;7.32;;;2.38;;
46210;SDS011;52144;48.040;-1.594;2023-07-31T10:01:41;3.05;;;1.92;;
46210;SDS011;52144;48.040;-1.594;2023-07-31T10:04:12;3.85;;;1.58;;
46210;SDS011;52144;48.040;-1.594;2023-07-31T10:06:42;8.85;;;1.90;;
46210;SDS011;52144;48.040;-1.594;2023-07-31T10:09:11;3.22;;;1.63;;
46210;SDS011;52144;48.040;-1.594;2023-07-31T10:11:47;4.45;;;1.90;;
46210;SDS011;52144;48.040;-1.594;2023-07-31T10:14:22;4.85;;;1.65;;
46210;SDS011;52144;48.040;-1.594;2023-07-31T10:16:51;2.80;;;1.77;;
46210;SDS011;52144;48.040;-1.594;2023-07-31T10:19:20;5.53;;;2.50;;
46210;SDS011;52144;48.040;-1.594;2023-07-31T10:21:49;2.45;;;1.85;;
46210;SDS011;52144;48.040;-1.594;2023-07-31T10:24:18;5.05;;;1.90;;
46210;SDS011;52144;48.040;-1.594;2023-07-31T10:26:46;4.75;;;1.85;;
46210;SDS011;52144;48.040;-1.594;2023-07-31T10:29:16;7.70;;;2.35;;
46210;SDS011;52144;48.040;-1.594;2023-07-31T10:31:44;8.25;;;2.30;;
46210;SDS011;52144;48.040;-1.594;2023-07-31T10:34:13;10.23;;;2.30;;
46210;SDS011;52144;48.040;-1.594;2023-07-31T10:36:42;12.15;;;2.50;;
46210;SDS011;52144;48.040;-1.594;2023-07-31T10:42:11;3.05;;;2.08;;
46210;SDS011;52144;48.040;-1.594;2023-07-31T10:44:43;5.78;;;1.85;;
46210;SDS011;52144;48.040;-1.594;2023-07-31T10:47:14;9.57;;;2.25;;
46210;SDS011;52144;48.040;-1.594;2023-07-31T10:49:44;12.18;;;2.90;;
46210;SDS011;52144;48.040;-1.594;2023-07-31T10:52:12;5.90;;;2.88;;
46210;SDS011;52144;48.040;-1.594;2023-07-31T10:54:42;4.20;;;2.33;;
46210;SDS011;52144;48.040;-1.594;2023-07-31T10:57:18;6.13;;;2.67;;
46210;SDS011;52144;48.040;-1.594;2023-07-31T10:59:47;3.88;;;2.65;;
46210;SDS011;52144;48.040;-1.594;2023-07-31T11:02:25;7.90;;;2.05;;
46210;SDS011;52144;48.040;-1.594;2023-07-31T11:05:06;8.02;;;2.28;;
46210;SDS011;52144;48.040;-1.594;2023-07-31T11:07:47;2.92;;;1.70;;
46210;SDS011;52144;48.040;-1.594;2023-07-31T11:10:17;1.95;;;1.23;;
46210;SDS011;52144;48.040;-1.594;2023-07-31T11:12:46;6.95;;;1.80;;
46210;SDS011;52144;48.040;-1.594;2023-07-31T11:15:14;3.63;;;1.88;;
46210;SDS011;52144;48.040;-1.594;2023-07-31T11:17:41;2.97;;;2.05;;
46210;SDS011;52144;48.040;-1.594;2023-07-31T11:20:10;5.60;;;2.08;;
46210;SDS011;52144;48.040;-1.594;2023-07-31T11:22:38;9.63;;;1.83;;
46210;SDS011;52144;48.040;-1.594;2023-07-31T11:25:07;4.35;;;1.52;;
46210;SDS011;52144;48.040;-1.594;2023-07-31T11:27:39;6.10;;;2.22;;
46210;SDS011;52144;48.040;-1.594;2023-07-31T11:30:08;5.93;;;2.57;;
46210;SDS011;52144;48.040;-1.594;2023-07-31T11:32:37;6.43;;;2.00;;
46210;SDS011;52144;48.040;-1.594;2023-07-31T11:35:05;2.67;;;2.28;;
46210;SDS011;52144;48.040;-1.594;2023-07-31T11:37:38;7.70;;;2.97;;
46210;SDS011;52144;48.040;-1.594;2023-07-31T11:40:07;4.75;;;2.10;;
46210;SDS011;52144;48.040;-1.594;2023-07-31T11:42:35;3.38;;;1.90;;
46210;SDS011;52144;48.040;-1.594;2023-07-31T11:45:05;5.10;;;1.75;;
46210;SDS011;52144;48.040;-1.594;2023-07-31T11:47:35;5.80;;;2.60;;
46210;SDS011;52144;48.040;-1.594;2023-07-31T11:50:05;4.97;;;2.72;;
46210;SDS011;52144;48.040;-1.594;2023-07-31T11:52:37;7.68;;;3.20;;
46210;SDS011;52144;48.040;-1.594;2023-07-31T11:55:09;6.55;;;2.33;;
46210;SDS011;52144;48.040;-1.594;2023-07-31T11:57:37;4.85;;;2.00;;
46210;SDS011;52144;48.040;-1.594;2023-07-31T12:00:09;6.55;;;2.35;;
46210;SDS011;52144;48.040;-1.594;2023-07-31T12:02:39;3.55;;;1.88;;
46210;SDS011;52144;48.040;-1.594;2023-07-31T12:05:10;3.40;;;2.08;;
46210;SDS011;52144;48.040;-1.594;2023-07-31T12:07:45;6.80;;;2.53;;
46210;SDS011;52144;48.040;-1.594;2023-07-31T12:10:26;10.30;;;2.33;;
46210;SDS011;52144;48.040;-1.594;2023-07-31T12:12:56;5.20;;;2.27;;
46210;SDS011;52144;48.040;-1.594;2023-07-31T12:15:34;6.35;;;2.97;;
46210;SDS011;52144;48.040;-1.594;2023-07-31T12:18:04;6.43;;;1.73;;
46210;SDS011;52144;48.040;-1.594;2023-07-31T12:20:33;2.05;;;1.65;;
46210;SDS011;52144;48.040;-1.594;2023-07-31T12:23:01;4.45;;;1.65;;
46210;SDS011;52144;48.040;-1.594;2023-07-31T12:25:31;4.75;;;1.80;;
46210;SDS011;52144;48.040;-1.594;2023-07-31T12:28:06;3.38;;;1.70;;
46210;SDS011;52144;48.040;-1.594;2023-07-31T12:30:39;1.70;;;1.20;;
46210;SDS011;52144;48.040;-1.594;2023-07-31T12:33:12;3.00;;;1.40;;
46210;SDS011;52144;48.040;-1.594;2023-07-31T12:35:42;2.85;;;1.83;;
46210;SDS011;52144;48.040;-1.594;2023-07-31T12:38:13;2.50;;;1.43;;
46210;SDS011;52144;48.040;-1.594;2023-07-31T12:40:41;2.45;;;1.58;;
46210;SDS011;52144;48.040;-1.594;2023-07-31T12:43:09;2.05;;;1.30;;
46210;SDS011;52144;48.040;-1.594;2023-07-31T12:45:37;1.38;;;0.93;;
46210;SDS011;52144;48.040;-1.594;2023-07-31T12:48:06;3.10;;;1.55;;
46210;SDS011;52144;48.040;-1.594;2023-07-31T12:50:34;1.90;;;1.60;;
46210;SDS011;52144;48.040;-1.594;2023-07-31T12:53:02;2.90;;;1.80;;
46210;SDS011;52144;48.040;-1.594;2023-07-31T12:55:31;2.20;;;1.42;;
46210;SDS011;52144;48.040;-1.594;2023-07-31T12:58:00;5.93;;;1.50;;
46210;SDS011;52144;48.040;-1.594;2023-07-31T13:00:28;2.53;;;1.23;;
46210;SDS011;52144;48.040;-1.594;2023-07-31T13:02:56;2.88;;;1.35;;
46210;SDS011;52144;48.040;-1.594;2023-07-31T13:05:26;3.20;;;1.58;;
46210;SDS011;52144;48.040;-1.594;2023-07-31T13:07:54;1.88;;;1.20;;
46210;SDS011;52144;48.040;-1.594;2023-07-31T13:10:22;2.80;;;1.48;;
46210;SDS011;52144;48.040;-1.594;2023-07-31T13:12:50;2.50;;;1.20;;
46210;SDS011;52144;48.040;-1.594;2023-07-31T13:15:18;4.53;;;1.55;;
46210;SDS011;52144;48.040;-1.594;2023-07-31T13:17:46;3.65;;;1.38;;
46210;SDS011;52144;48.040;-1.594;2023-07-31T13:20:14;1.85;;;1.05;;
46210;SDS011;52144;48.040;-1.594;2023-07-31T13:22:43;1.42;;;1.33;;
46210;SDS011;52144;48.040;-1.594;2023-07-31T13:25:12;5.90;;;1.70;;
46210;SDS011;52144;48.040;-1.594;2023-07-31T13:27:40;3.88;;;1.17;;
46210;SDS011;52144;48.040;-1.594;2023-07-31T13:30:08;4.68;;;1.92;;
46210;SDS011;52144;48.040;-1.594;2023-07-31T13:32:36;2.90;;;1.38;;
46210;SDS011;52144;48.040;-1.594;2023-07-31T13:35:05;1.63;;;1.20;;
46210;SDS011;52144;48.040;-1.594;2023-07-31T13:37:34;3.30;;;1.02;;
46210;SDS011;52144;48.040;-1.594;2023-07-31T13:40:04;1.02;;;0.93;;
46210;SDS011;52144;48.040;-1.594;2023-07-31T13:42:32;3.90;;;1.60;;
46210;SDS011;52144;48.040;-1.594;2023-07-31T13:45:00;1.63;;;1.25;;
46210;SDS011;52144;48.040;-1.594;2023-07-31T13:47:32;2.73;;;1.20;;
46210;SDS011;52144;48.040;-1.594;2023-07-31T13:50:01;2.17;;;1.10;;
46210;SDS011;52144;48.040;-1.594;2023-07-31T13:52:28;3.17;;;1.30;;
46210;SDS011;52144;48.040;-1.594;2023-07-31T13:54:56;4.40;;;1.42;;
46210;SDS011;52144;48.040;-1.594;2023-07-31T13:57:25;7.07;;;1.73;;
46210;SDS011;52144;48.040;-1.594;2023-07-31T13:59:53;2.63;;;1.33;;
46210;SDS011;52144;48.040;-1.594;2023-07-31T14:02:21;4.22;;;1.23;;
46210;SDS011;52144;48.040;-1.594;2023-07-31T14:04:49;2.75;;;1.30;;
46210;SDS011;52144;48.040;-1.594;2023-07-31T14:07:17;1.58;;;1.23;;
46210;SDS011;52144;48.040;-1.594;2023-07-31T14:09:45;1.27;;;1.00;;
46210;SDS011;52144;48.040;-1.594;2023-07-31T14:12:12;1.60;;;1.30;;
46210;SDS011;52144;48.040;-1.594;2023-07-31T14:15:02;5.00;;;1.38;;
46210;SDS011;52144;48.040;-1.594;2023-07-31T14:17:30;1.83;;;1.52;;
46210;SDS011;52144;48.040;-1.594;2023-07-31T14:19:58;4.00;;;1.42;;
46210;SDS011;52144;48.040;-1.594;2023-07-31T14:22:27;4.22;;;1.00;;
46210;SDS011;52144;48.040;-1.594;2023-07-31T14:24:56;3.95;;;1.40;;
46210;SDS011;52144;48.040;-1.594;2023-07-31T14:27:24;5.25;;;2.40;;
46210;SDS011;52144;48.040;-1.594;2023-07-31T14:29:51;4.22;;;2.20;;
46210;SDS011;52144;48.040;-1.594;2023-07-31T14:32:21;3.72;;;1.90;;
46210;SDS011;52144;48.040;-1.594;2023-07-31T14:34:51;4.07;;;1.58;;
46210;SDS011;52144;48.040;-1.594;2023-07-31T14:37:20;7.82;;;1.80;;
46210;SDS011;52144;48.040;-1.594;2023-07-31T14:39:48;2.35;;;1.30;;
46210;SDS011;52144;48.040;-1.594;2023-07-31T14:42:17;2.55;;;1.70;;
46210;SDS011;52144;48.040;-1.594;2023-07-31T14:44:45;3.08;;;2.17;;
46210;SDS011;52144;48.040;-1.594;2023-07-31T14:47:14;4.13;;;1.42;;